Time;durP1;ratioP1;P1;durP2;ratioP2;P2;SDS_P1;SDS_P2;PMS_P1;PMS_P2;Temp;Humidity;BMP_temperature;BMP_pressure;BME280_temperature;BME280_humidity;BME280_pressure;Samples;Min_cycle;Max_cycle;Signal;HPM_P1;HPM_P2
2022/04/30 00:00:51;;;;;;;16.75;7.38;;;;;;;;;;5012124;28;20496;-51
2022/04/30 00:03:16;;;;;;;16.70;7.25;;;8.00;99.90;;;;;;5012403;28;20022;-55
2022/04/30 00:05:42;;;;;;;18.50;6.97;;;7.80;99.90;;;;;;5012144;28;20382;-53
2022/04/30 00:08:08;;;;;;;16.77;7.07;;;7.80;99.90;;;;;;5012326;28;20062;-51
2022/04/30 00:10:37;;;;;;;17.10;7.05;;;7.80;99.90;;;;;;5012794;28;20033;-56
2022/04/30 00:13:10;;;;;;;17.13;7.10;;;7.70;99.90;;;;;;5016382;28;20022;-55
2022/04/30 00:15:36;;;;;;;19.38;8.40;;;7.70;99.90;;;;;;5014567;28;20133;-57
2022/04/30 00:18:02;;;;;;;17.73;8.20;;;7.60;99.90;;;;;;5015910;28;20676;-55
2022/04/30 00:20:28;;;;;;;15.57;7.70;;;7.60;99.90;;;;;;5013891;28;20022;-51
2022/04/30 00:22:53;;;;;;;17.50;7.53;;;7.60;99.90;;;;;;5015919;28;20084;-55
2022/04/30 00:25:21;;;;;;;17.83;7.20;;;7.50;99.90;;;;;;5015567;28;20083;-52
2022/04/30 00:27:47;;;;;;;16.83;7.05;;;7.50;99.90;;;;;;5015912;28;20076;-53
2022/04/30 00:30:14;;;;;;;16.80;7.53;;;7.50;99.90;;;;;;5014563;28;20053;-55
2022/04/30 00:32:40;;;;;;;15.95;7.32;;;7.50;99.90;;;;;;5015728;28;20018;-56
2022/04/30 00:35:06;;;;;;;17.73;7.93;;;7.50;99.90;;;;;;5014349;28;20088;-55
2022/04/30 00:37:32;;;;;;;20.08;7.40;;;7.50;99.90;;;;;;5014724;28;20457;-54
2022/04/30 00:39:58;;;;;;;17.80;7.97;;;7.40;99.90;;;;;;5015680;28;20037;-52
2022/04/30 00:42:23;;;;;;;25.00;8.60;;;7.40;99.90;;;;;;5015333;28;20029;-56
2022/04/30 00:44:49;;;;;;;18.33;7.75;;;7.40;99.90;;;;;;5013841;28;20026;-55
2022/04/30 00:47:19;;;;;;;18.63;7.68;;;7.40;99.90;;;;;;5014485;28;20409;-55
2022/04/30 00:49:47;;;;;;;17.95;7.88;;;7.40;99.90;;;;;;5015760;28;20029;-53
2022/04/30 00:52:15;;;;;;;17.33;7.50;;;7.40;99.90;;;;;;5057221;22;20691;-59
2022/04/30 00:54:42;;;;;;;17.05;8.20;;;7.40;99.90;;;;;;5053206;28;20104;-57
2022/04/30 00:57:13;;;;;;;17.17;7.57;;;7.40;99.90;;;;;;5052164;28;20103;-60
2022/04/30 00:59:43;;;;;;;18.65;7.57;;;7.40;99.90;;;;;;5053540;28;20028;-58
2022/04/30 01:02:10;;;;;;;18.80;7.60;;;7.40;99.90;;;;;;5053465;28;20033;-57
2022/04/30 01:04:36;;;;;;;17.73;7.53;;;7.40;99.90;;;;;;5053477;28;20032;-61
2022/04/30 01:07:09;;;;;;;16.48;8.30;;;7.30;99.90;;;;;;5051988;28;20180;-59
2022/04/30 01:09:39;;;;;;;17.27;8.18;;;7.30;99.90;;;;;;5052807;28;20376;-59
2022/04/30 01:12:09;;;;;;;16.98;8.18;;;7.20;99.90;;;;;;5053150;28;20028;-59
2022/04/30 01:14:35;;;;;;;16.75;8.07;;;7.10;99.90;;;;;;5053059;28;20024;-60
2022/04/30 01:17:06;;;;;;;17.90;8.00;;;7.10;99.90;;;;;;5053045;28;20481;-58
2022/04/30 01:19:36;;;;;;;18.67;8.07;;;7.10;99.90;;;;;;5053038;28;20044;-57
2022/04/30 01:22:08;;;;;;;16.27;7.68;;;7.10;99.90;;;;;;5052743;28;20072;-59
2022/04/30 01:24:35;;;;;;;20.15;8.55;;;7.10;99.90;;;;;;5052808;28;20108;-58
2022/04/30 01:27:04;;;;;;;15.35;8.15;;;7.00;99.90;;;;;;5052752;28;20108;-61
2022/04/30 01:29:30;;;;;;;16.88;8.02;;;7.00;99.90;;;;;;5052845;28;20032;-60
2022/04/30 01:37:28;;;;;;;20.55;8.45;;;6.90;99.90;;;;;;5052939;28;20044;-59
2022/04/30 01:40:03;;;;;;;19.92;8.68;;;6.90;99.90;;;;;;5052368;28;20477;-59
2022/04/30 01:42:35;;;;;;;16.70;7.97;;;6.80;99.90;;;;;;5052518;28;20476;-61
2022/04/30 01:45:04;;;;;;;19.13;8.40;;;6.80;99.90;;;;;;5051018;28;20056;-61
2022/04/30 01:47:31;;;;;;;21.17;8.30;;;6.80;99.90;;;;;;5052575;28;20645;-57
2022/04/30 01:49:57;;;;;;;18.70;8.23;;;6.80;99.90;;;;;;5052336;28;20029;-61
2022/04/30 01:52:22;;;;;;;18.98;7.50;;;6.80;99.90;;;;;;5052360;28;20108;-61
2022/04/30 01:54:48;;;;;;;21.48;8.45;;;6.80;99.90;;;;;;5052443;28;20021;-61
2022/04/30 01:57:21;;;;;;;17.50;8.13;;;6.70;99.90;;;;;;5052704;28;20097;-58
2022/04/30 01:59:46;;;;;;;19.52;8.13;;;6.70;99.90;;;;;;5052235;28;20098;-60
2022/04/30 02:02:12;;;;;;;17.83;8.35;;;6.70;99.90;;;;;;5052196;28;20060;-60
2022/04/30 02:04:38;;;;;;;19.02;8.77;;;6.70;99.90;;;;;;5067387;28;20025;-59
2022/04/30 02:07:05;;;;;;;19.83;8.70;;;6.70;99.90;;;;;;5051889;28;20025;-59
2022/04/30 02:09:31;;;;;;;17.73;7.75;;;6.70;99.90;;;;;;5050552;28;20432;-60
2022/04/30 02:12:01;;;;;;;18.10;8.85;;;6.70;99.90;;;;;;5051730;28;20096;-61
2022/04/30 02:14:30;;;;;;;17.80;8.02;;;6.70;99.90;;;;;;5051910;28;20020;-59
2022/04/30 02:17:00;;;;;;;17.20;8.77;;;6.70;99.90;;;;;;5051765;28;20116;-59
2022/04/30 02:19:28;;;;;;;18.58;8.20;;;6.60;99.90;;;;;;5051574;28;20029;-58
2022/04/30 02:21:57;;;;;;;18.23;8.48;;;6.70;99.90;;;;;;5050593;28;20392;-60
2022/04/30 02:24:27;;;;;;;19.05;8.60;;;6.70;99.90;;;;;;5066847;28;20511;-58
2022/04/30 02:26:53;;;;;;;20.73;9.43;;;6.60;99.90;;;;;;5066592;28;20040;-58
2022/04/30 02:29:19;;;;;;;19.48;9.00;;;;;;;;;;5051590;28;20099;-59
2022/04/30 02:31:46;;;;;;;18.20;8.88;;;;;;;;;;5051617;28;20488;-54
2022/04/30 02:34:13;;;;;;;19.98;8.77;;;;;;;;;;5049574;28;20359;-57
2022/04/30 02:36:39;;;;;;;16.67;8.23;;;;;;;;;;5051302;28;20477;-59
2022/04/30 02:39:05;;;;;;;19.00;8.30;;;;;;;;;;5051281;28;20037;-56
2022/04/30 02:41:31;;;;;;;19.10;9.45;;;;;;;;;;5051352;28;20029;-61
2022/04/30 02:43:58;;;;;;;17.98;8.65;;;;;;;;;;5051467;28;20444;-59
2022/04/30 02:46:24;;;;;;;17.50;8.65;;;;;;;;;;5051205;28;20021;-61
2022/04/30 02:48:50;;;;;;;20.45;8.70;;;;;;;;;;5051374;28;20024;-60
2022/04/30 02:51:16;;;;;;;22.50;8.75;;;;;;;;;;5051437;28;20035;-54
2022/04/30 02:53:43;;;;;;;18.85;8.10;;;6.60;99.90;;;;;;5051380;28;20024;-57
2022/04/30 02:56:12;;;;;;;21.50;9.13;;;6.50;99.90;;;;;;5051135;28;20115;-61
2022/04/30 03:01:21;;;;;;;18.27;8.07;;;6.50;99.90;;;;;;5051402;28;19919;-58
2022/04/30 03:03:48;;;;;;;21.33;8.05;;;6.50;99.90;;;;;;5051092;28;20033;-59
2022/04/30 03:06:16;;;;;;;18.75;8.75;;;6.40;99.90;;;;;;5049546;28;20028;-59
2022/04/30 03:08:44;;;;;;;;;;;6.40;99.90;;;;;;5051509;28;20047;-57
2022/04/30 03:11:09;;;;;;;21.27;8.30;;;6.30;99.90;;;;;;5049383;28;19904;-60
2022/04/30 03:13:36;;;;;;;18.15;9.05;;;6.30;99.90;;;;;;5051130;28;20107;-60
2022/04/30 03:21:44;;;;;;;19.35;8.68;;;6.20;99.90;;;;;;5050820;28;20145;-56
2022/04/30 03:24:11;;;;;;;20.45;8.63;;;6.10;99.90;;;;;;5050915;28;20025;-59
2022/04/30 03:26:37;;;;;;;19.25;8.73;;;6.10;99.90;;;;;;5050730;28;20024;-58
2022/04/30 03:29:04;;;;;;;19.73;8.65;;;6.10;99.90;;;;;;5050574;28;20025;-60
2022/04/30 03:31:30;;;;;;;17.38;8.98;;;6.10;99.90;;;;;;5051053;28;20025;-59
2022/04/30 03:33:56;;;;;;;22.75;10.48;;;6.00;99.90;;;;;;5049759;28;20656;-58
2022/04/30 03:36:22;;;;;;;20.42;9.27;;;6.10;99.90;;;;;;5051070;28;20025;-61
2022/04/30 03:38:47;;;;;;;19.77;9.52;;;6.00;99.90;;;;;;5050892;28;20061;-59
2022/04/30 03:41:15;;;;;;;18.70;8.82;;;6.10;99.90;;;;;;5066182;28;20049;-59
2022/04/30 03:43:41;;;;;;;19.30;8.80;;;6.00;99.90;;;;;;5050782;28;20397;-59
2022/04/30 03:46:07;;;;;;;19.40;8.55;;;6.00;99.90;;;;;;5051738;28;20039;-58
2022/04/30 03:48:33;;;;;;;19.77;9.77;;;6.10;99.90;;;;;;5054698;28;20465;-60
2022/04/30 03:50:59;;;;;;;18.25;8.60;;;6.00;99.90;;;;;;5053893;28;20507;-59
2022/04/30 03:53:24;;;;;;;18.10;8.65;;;6.00;99.90;;;;;;5053384;28;20035;-58
2022/04/30 03:55:51;;;;;;;19.45;8.95;;;5.90;99.90;;;;;;5054712;28;20503;-58
2022/04/30 03:58:16;;;;;;;19.00;8.82;;;5.90;99.90;;;;;;5054605;28;20064;-59
2022/04/30 04:00:43;;;;;;;20.02;9.60;;;5.80;99.90;;;;;;5053215;28;20039;-62
2022/04/30 04:03:09;;;;;;;22.48;9.93;;;5.90;99.90;;;;;;5054557;28;20021;-59
2022/04/30 04:05:35;;;;;;;19.17;9.30;;;5.80;99.90;;;;;;5054279;28;20111;-60
2022/04/30 04:08:00;;;;;;;19.88;9.40;;;5.90;99.90;;;;;;5054407;28;20469;-57
2022/04/30 04:10:27;;;;;;;18.33;8.57;;;5.80;99.90;;;;;;5054307;28;20017;-59
2022/04/30 04:17:37;;;;;;;19.33;9.55;;;5.90;99.90;;;;;;5054208;28;20400;-61
2022/04/30 04:18:22;;;;;;;20.23;9.45;;;5.90;99.90;;;;;;5054526;28;20035;-57
2022/04/30 04:20:48;;;;;;;19.08;9.63;;;5.90;99.90;;;;;;5054101;28;20108;-58
2022/04/30 04:23:13;;;;;;;23.85;9.98;;;5.80;99.90;;;;;;5054215;28;20031;-58
2022/04/30 04:28:23;;;;;;;26.23;10.23;;;5.80;99.90;;;;;;5054013;28;20070;-58
2022/04/30 04:30:48;;;;;;;20.83;10.00;;;5.80;99.90;;;;;;5053689;28;20033;-60
2022/04/30 04:33:14;;;;;;;20.20;9.60;;;5.70;99.90;;;;;;5069196;28;20025;-52
2022/04/30 04:35:40;;;;;;;23.50;10.45;;;5.80;99.90;;;;;;5053727;28;20068;-59
2022/04/30 04:38:05;;;;;;;18.52;9.50;;;5.90;99.90;;;;;;5054087;28;20473;-61
2022/04/30 04:40:31;;;;;;;22.63;10.00;;;6.00;99.90;;;;;;5054650;28;20032;-58
2022/04/30 04:42:56;;;;;;;18.45;9.25;;;6.10;99.90;;;;;;5054204;28;20518;-58
2022/04/30 04:45:23;;;;;;;17.85;8.93;;;6.30;99.90;;;;;;5069098;28;20484;-58
2022/04/30 04:47:50;;;;;;;20.02;9.10;;;6.40;99.90;;;;;;5052478;28;20500;-59
2022/04/30 04:50:16;;;;;;;21.13;9.48;;;6.50;99.90;;;;;;5068823;28;20025;-61
2022/04/30 04:52:43;;;;;;;21.67;10.07;;;6.50;99.90;;;;;;5052176;28;20028;-59
2022/04/30 04:55:09;;;;;;;19.85;9.23;;;6.40;99.90;;;;;;5053562;28;20420;-59
2022/04/30 04:57:35;;;;;;;19.83;9.45;;;6.50;99.90;;;;;;5051397;28;20044;-57
2022/04/30 05:00:01;;;;;;;20.25;10.00;;;6.40;99.90;;;;;;5053421;28;20025;-58
2022/04/30 05:02:26;;;;;;;21.77;9.70;;;6.40;99.90;;;;;;5058160;28;20021;-60
2022/04/30 05:04:52;;;;;;;24.08;10.23;;;6.50;99.90;;;;;;5077139;28;20028;-57
2022/04/30 05:07:17;;;;;;;25.08;10.10;;;6.40;99.90;;;;;;5060828;28;20025;-58
2022/04/30 05:09:43;;;;;;;20.83;10.10;;;6.40;99.90;;;;;;5059997;28;20047;-60
2022/04/30 05:12:09;;;;;;;21.35;10.27;;;6.40;99.90;;;;;;5060403;28;20028;-60
2022/04/30 05:14:34;;;;;;;21.67;10.50;;;6.50;99.90;;;;;;5056559;28;20029;-61
2022/04/30 05:17:02;;;;;;;22.38;10.27;;;6.50;99.90;;;;;;5055290;28;20031;-59
2022/04/30 05:19:28;;;;;;;19.75;9.57;;;6.60;99.90;;;;;;5054246;28;20025;-61
2022/04/30 05:21:54;;;;;;;20.77;10.15;;;6.60;99.90;;;;;;5055934;28;20036;-60
2022/04/30 05:24:19;;;;;;;19.65;9.93;;;6.70;99.90;;;;;;5056603;28;20052;-61
2022/04/30 05:26:46;;;;;;;19.55;10.10;;;6.90;99.90;;;;;;5056105;28;20484;-60
2022/04/30 05:29:11;;;;;;;18.65;10.32;;;7.10;99.90;;;;;;5057617;28;20434;-62
2022/04/30 05:31:37;;;;;;;21.92;9.98;;;7.40;99.90;;;;;;5057606;28;20021;-61
2022/04/30 05:34:02;;;;;;;19.23;9.68;;;7.60;99.90;;;;;;5060033;28;20029;-60
2022/04/30 05:36:28;;;;;;;19.92;10.15;;;7.80;99.90;;;;;;5058859;28;20082;-59
2022/04/30 05:38:53;;;;;;;17.83;9.30;;;8.00;99.90;;;;;;5056299;28;20028;-62
2022/04/30 05:41:19;;;;;;;19.63;10.35;;;8.20;99.90;;;;;;5056626;28;20029;-61
2022/04/30 05:43:45;;;;;;;23.67;10.38;;;8.40;99.90;;;;;;5056579;28;20064;-60
2022/04/30 05:46:13;;;;;;;19.15;9.40;;;8.50;99.90;;;;;;5056440;28;20051;-61
2022/04/30 05:48:39;;;;;;;22.58;10.63;;;8.60;99.90;;;;;;5055993;28;20024;-61
2022/04/30 05:51:04;;;;;;;19.40;9.90;;;8.60;99.90;;;;;;5056854;28;20029;-61
2022/04/30 05:53:30;;;;;;;22.02;10.45;;;8.50;99.90;;;;;;5057129;28;20028;-60
2022/04/30 05:55:56;;;;;;;20.10;11.30;;;8.40;99.90;;;;;;5055988;28;20107;-59
2022/04/30 05:58:22;;;;;;;23.58;10.77;;;8.40;99.90;;;;;;5056211;28;20071;-60
2022/04/30 06:00:48;;;;;;;21.65;9.70;;;8.40;99.90;;;;;;5072430;28;20036;-60
2022/04/30 06:03:13;;;;;;;19.92;10.07;;;8.50;99.90;;;;;;5057013;28;20029;-58
2022/04/30 06:05:39;;;;;;;29.98;17.48;;;8.50;99.90;;;;;;5056915;28;20025;-60
2022/04/30 06:08:05;;;;;;;24.10;12.23;;;8.50;99.90;;;;;;5057177;28;20029;-58
2022/04/30 06:10:31;;;;;;;19.60;10.75;;;8.50;99.90;;;;;;5055942;28;20108;-61
2022/04/30 06:12:57;;;;;;;23.95;11.23;;;8.40;99.90;;;;;;5057657;28;20052;-59
2022/04/30 06:15:22;;;;;;;19.10;8.77;;;8.40;99.90;;;;;;5058805;28;20025;-62
2022/04/30 06:17:48;;;;;;;21.52;9.48;;;8.40;99.90;;;;;;5057811;28;20047;-62
2022/04/30 06:20:14;;;;;;;24.73;12.55;;;8.50;99.90;;;;;;5058466;28;20396;-61
2022/04/30 06:22:40;;;;;;;20.95;10.13;;;8.50;99.90;;;;;;5059285;28;20037;-60
2022/04/30 06:25:06;;;;;;;22.35;12.07;;;8.60;99.90;;;;;;5058522;28;20033;-63
2022/04/30 06:27:33;;;;;;;24.00;10.48;;;8.60;99.90;;;;;;5057620;28;20078;-60
2022/04/30 06:29:59;;;;;;;19.48;10.05;;;8.70;99.90;;;;;;5059051;28;20068;-64
2022/04/30 06:32:25;;;;;;;20.98;10.38;;;8.70;99.90;;;;;;5062287;28;20101;-62
2022/04/30 06:34:50;;;;;;;21.02;10.15;;;8.60;99.90;;;;;;5067403;28;20036;-62
2022/04/30 06:37:17;;;;;;;20.63;10.85;;;8.70;99.90;;;;;;5058077;28;20424;-58
2022/04/30 06:39:43;;;;;;;21.23;9.90;;;8.60;99.90;;;;;;5056718;28;20039;-62
2022/04/30 06:42:09;;;;;;;19.88;10.02;;;8.60;99.90;;;;;;5051776;28;20025;-59
2022/04/30 06:44:34;;;;;;;18.95;9.65;;;8.60;99.90;;;;;;5051443;28;20065;-62
2022/04/30 06:47:00;;;;;;;22.58;10.15;;;8.60;99.90;;;;;;5051111;28;20064;-60
2022/04/30 06:49:26;;;;;;;20.85;9.57;;;8.50;99.90;;;;;;5051596;28;20044;-60
2022/04/30 06:51:51;;;;;;;20.92;10.57;;;8.50;99.90;;;;;;5068316;22;20179;-61
2022/04/30 06:57:20;;;;;;;24.05;11.43;;;8.70;99.90;;;;;;5072940;28;20166;-58
2022/04/30 06:59:46;;;;;;;23.52;10.75;;;8.80;99.90;;;;;;5073133;28;20477;-58
2022/04/30 07:02:22;;;;;;;21.85;10.25;;;9.10;99.90;;;;;;5072684;28;20083;-60
2022/04/30 07:04:51;;;;;;;18.80;9.68;;;9.40;99.90;;;;;;5070878;28;20028;-56
2022/04/30 07:07:18;;;;;;;21.13;9.70;;;9.70;99.90;;;;;;5072296;28;20443;-57
2022/04/30 07:09:44;;;;;;;24.58;11.18;;;9.70;99.90;;;;;;5071818;28;20027;-59
2022/04/30 07:12:13;;;;;;;19.90;9.38;;;9.80;99.90;;;;;;5072745;28;20020;-58
2022/04/30 07:14:40;;;;;;;;;;;10.10;99.90;;;;;;5073485;28;20036;-56
2022/04/30 07:17:10;;;;;;;21.77;9.77;;;10.20;99.90;;;;;;5072280;28;19905;-56
2022/04/30 07:19:35;;;;;;;19.38;9.23;;;10.40;99.90;;;;;;5072185;28;20074;-58
2022/04/30 07:22:02;;;;;;;20.23;9.73;;;10.40;99.90;;;;;;5071583;28;20025;-58
2022/04/30 07:24:28;;;;;;;19.10;9.10;;;10.50;99.90;;;;;;5070819;28;20032;-58
2022/04/30 07:26:54;;;;;;;18.05;9.00;;;10.30;99.90;;;;;;5071907;28;20025;-59
2022/04/30 07:29:19;;;;;;;23.75;9.85;;;10.10;99.90;;;;;;5072236;28;20481;-60
2022/04/30 07:31:45;;;;;;;19.05;9.68;;;10.10;99.90;;;;;;5070939;28;20427;-57
2022/04/30 07:34:11;;;;;;;17.95;9.23;;;9.90;99.90;;;;;;5071832;28;20495;-58
2022/04/30 07:36:37;;;;;;;19.95;9.52;;;9.70;99.90;;;;;;5071687;28;20024;-59
2022/04/30 07:39:11;;;;;;;20.40;9.38;;;9.60;99.90;;;;;;5070235;28;20156;-59
2022/04/30 07:41:37;;;;;;;18.98;9.80;;;9.60;99.90;;;;;;5071609;28;20063;-59
2022/04/30 07:44:02;;;;;;;24.25;9.25;;;9.60;99.90;;;;;;5071771;28;20021;-59
2022/04/30 07:46:28;;;;;;;17.38;8.68;;;9.60;99.90;;;;;;5071706;28;20028;-61
2022/04/30 07:48:54;;;;;;;18.45;9.27;;;9.70;99.90;;;;;;5071708;28;20025;-57
2022/04/30 07:51:33;;;;;;;17.70;8.82;;;9.70;99.90;;;;;;5071603;28;20550;-59
2022/04/30 07:54:02;;;;;;;18.42;9.18;;;9.70;99.90;;;;;;5070038;28;20074;-59
2022/04/30 07:56:28;;;;;;;19.17;9.40;;;10.00;99.90;;;;;;5071692;28;20411;-59
2022/04/30 07:58:54;;;;;;;17.75;9.52;;;10.30;99.90;;;;;;5071653;28;20027;-60
2022/04/30 08:01:19;;;;;;;19.75;10.07;;;10.60;99.90;;;;;;5071616;28;20547;-59
2022/04/30 08:03:45;;;;;;;18.38;8.88;;;10.70;99.90;;;;;;5071422;28;20443;-59
2022/04/30 08:06:10;;;;;;;19.33;9.10;;;10.70;99.90;;;;;;5071045;28;20472;-58
2022/04/30 08:08:36;;;;;;;19.13;8.65;;;10.80;99.90;;;;;;5070989;28;20021;-60
2022/04/30 08:11:02;;;;;;;20.52;10.02;;;10.70;99.90;;;;;;5071053;28;20023;-51
2022/04/30 08:13:27;;;;;;;23.27;8.85;;;10.90;99.90;;;;;;5071658;28;20020;-55
2022/04/30 08:15:53;;;;;;;17.90;8.52;;;11.10;99.90;;;;;;5070121;28;20025;-58
2022/04/30 08:18:19;;;;;;;18.15;8.45;;;11.10;99.90;;;;;;5071448;28;20021;-57
2022/04/30 08:20:46;;;;;;;17.83;8.10;;;11.40;99.90;;;;;;5070052;28;20025;-56
2022/04/30 08:23:12;;;;;;;17.80;7.78;;;11.60;99.90;;;;;;5071550;28;20384;-58
2022/04/30 08:25:38;;;;;;;17.17;7.93;;;11.40;99.90;;;;;;5071042;28;20035;-56
2022/04/30 08:28:04;;;;;;;18.35;8.70;;;11.40;99.90;;;;;;5070985;28;20029;-58
2022/04/30 08:30:31;;;;;;;18.00;8.85;;;11.20;99.90;;;;;;5069867;28;20020;-53
2022/04/30 08:32:57;;;;;;;18.65;8.77;;;11.10;99.90;;;;;;5073649;28;20020;-58
2022/04/30 08:35:23;;;;;;;17.98;8.95;;;11.00;99.90;;;;;;4723371;28;9999633;-60
2022/04/30 08:37:49;;;;;;;17.67;7.97;;;11.00;99.90;;;;;;5077495;28;20123;-60
2022/04/30 08:40:16;;;;;;;16.35;8.43;;;11.20;99.90;;;;;;5088998;28;20135;-61
2022/04/30 08:42:41;;;;;;;20.30;9.35;;;11.20;99.90;;;;;;5089041;28;20039;-60
2022/04/30 08:45:09;;;;;;;17.65;8.70;;;11.20;99.90;;;;;;5071870;28;20032;-60
2022/04/30 08:47:39;;;;;;;17.63;8.98;;;11.10;99.90;;;;;;5071793;28;20057;-60
2022/04/30 08:50:15;;;;;;;17.13;8.50;;;11.30;99.90;;;;;;5070579;28;20035;-58
2022/04/30 08:52:41;;;;;;;17.98;9.18;;;11.60;99.90;;;;;;5087520;28;20066;-56
2022/04/30 08:55:08;;;;;;;17.40;8.52;;;12.00;99.90;;;;;;5092001;28;20455;-58
2022/04/30 08:57:34;;;;;;;17.77;9.07;;;12.20;99.90;;;;;;5092403;28;20687;-55
2022/04/30 09:00:00;;;;;;;16.70;8.90;;;12.40;99.90;;;;;;5091793;28;20038;-56
2022/04/30 09:02:26;;;;;;;18.65;9.50;;;12.10;99.90;;;;;;5090546;28;20118;-58
2022/04/30 09:04:52;;;;;;;17.90;9.63;;;11.90;99.90;;;;;;5090614;28;20020;-59
2022/04/30 09:07:23;;;;;;;16.77;8.18;;;12.00;99.90;;;;;;5090681;28;20515;-63
2022/04/30 09:10:01;;;;;;;18.25;8.77;;;12.10;99.90;;;;;;5076551;28;20537;-60
2022/04/30 09:12:29;;;;;;;17.15;8.40;;;12.50;99.90;;;;;;5072582;28;20033;-59
2022/04/30 09:14:55;;;;;;;21.17;9.48;;;12.80;99.90;;;;;;5072683;28;20496;-56
2022/04/30 09:17:22;;;;;;;21.80;8.80;;;13.30;99.90;;;;;;5071538;28;20102;-60
2022/04/30 09:20:04;;;;;;;17.05;9.63;;;13.50;99.90;;;;;;5069921;28;20503;-60
2022/04/30 09:22:38;;;;;;;16.75;8.55;;;13.70;98.60;;;;;;5071558;28;20043;-60
2022/04/30 09:25:12;;;;;;;16.77;8.23;;;13.30;96.40;;;;;;5071387;28;20147;-60
2022/04/30 09:27:44;;;;;;;17.13;9.55;;;13.20;97.30;;;;;;5071282;28;20091;-60
2022/04/30 09:30:25;;;;;;;15.88;8.70;;;13.30;98.30;;;;;;5071155;28;20059;-61
2022/04/30 09:33:02;;;;;;;17.67;8.95;;;13.40;97.60;;;;;;5069560;28;20496;-61
2022/04/30 09:38:13;;;;;;;16.35;8.73;;;13.80;98.30;;;;;;5071139;28;20428;-60
2022/04/30 09:40:39;;;;;;;17.95;9.60;;;;;;;;;;5072332;28;20028;-60
2022/04/30 09:43:15;;;;;;;17.45;8.70;;;;;;;;;;5072504;28;20024;-61
2022/04/30 09:45:41;;;;;;;16.10;8.40;;;;;;;;;;5073241;28;20051;-63
2022/04/30 09:53:57;;;;;;;16.63;8.85;;;;;;;;;;5064648;28;20241;-62
2022/04/30 09:56:39;;;;;;;15.60;8.65;;;;;;;;;;5067214;28;20427;-57
2022/04/30 09:59:12;;;;;;;15.68;8.65;;;;;;;;;;5053746;28;20056;-60
2022/04/30 10:01:39;;;;;;;15.57;7.93;;;;;;;;;;5057971;28;20027;-58
2022/04/30 10:04:07;;;;;;;15.23;7.70;;;;;;;;;;5072783;28;20115;-61
2022/04/30 10:06:38;;;;;;;15.30;7.60;;;;;;;;;;5055228;28;20043;-59
2022/04/30 10:09:12;;;;;;;15.85;8.13;;;14.30;96.90;;;;;;5053100;28;20146;-59
2022/04/30 10:11:41;;;;;;;14.52;7.72;;;;;;;;;;5051405;28;20064;-61
2022/04/30 10:14:10;;;;;;;14.80;7.72;;;;;;;;;;5037774;28;20031;-60
2022/04/30 10:16:37;;;;;;;15.77;7.93;;;;;;;;;;5053144;28;20021;-60
2022/04/30 10:19:16;;;;;;;15.80;8.00;;;;;;;;;;5051648;28;20040;-60
2022/04/30 10:21:42;;;;;;;15.52;7.88;;;;;;;;;;5053119;28;20481;-59
2022/04/30 10:24:12;;;;;;;16.02;7.85;;;;;;;;;;5053101;28;20036;-58
2022/04/30 10:26:38;;;;;;;18.55;9.40;;;;;;;;;;5053206;28;20017;-63
2022/04/30 10:29:12;;;;;;;16.83;8.45;;;13.40;90.90;;;;;;5053277;28;20017;-64
2022/04/30 10:31:46;;;;;;;17.05;7.95;;;14.50;90.30;;;;;;4706082;28;9999886;-64
2022/04/30 10:34:13;;;;;;;14.98;7.80;;;;;;;;;;5071130;28;20031;-63
2022/04/30 10:36:39;;;;;;;15.32;7.72;;;;;;;;;;5072024;28;20579;-63
2022/04/30 10:39:12;;;;;;;15.55;8.05;;;14.60;89.40;;;;;;5072940;28;20481;-63
2022/04/30 10:41:45;;;;;;;16.00;8.40;;;;;;;;;;5072026;28;20021;-63
2022/04/30 10:44:13;;;;;;;17.95;8.27;;;;;;;;;;5072761;28;20016;-62
2022/04/30 10:46:39;;;;;;;16.52;7.78;;;;;;;;;;5072123;28;20028;-63
2022/04/30 10:49:06;;;;;;;17.55;8.32;;;;;;;;;;5071238;28;20646;-64
2022/04/30 10:51:42;;;;;;;17.38;8.45;;;;;;;;;;5072359;28;20031;-65
2022/04/30 10:54:09;;;;;;;15.40;7.85;;;;;;;;;;5072487;28;20055;-66
2022/04/30 10:56:36;;;;;;;14.95;7.75;;;;;;;;;;5070071;28;20027;-64
2022/04/30 10:59:02;;;;;;;15.48;8.18;;;;;;;;;;5072327;28;20025;-65
2022/04/30 11:01:28;;;;;;;14.90;7.63;;;;;;;;;;5070470;28;20457;-64
2022/04/30 11:03:54;;;;;;;19.20;8.15;;;;;;;;;;5072336;28;20051;-65
2022/04/30 11:06:24;;;;;;;15.57;7.70;;;;;;;;;;5071782;28;20048;-65
2022/04/30 11:08:56;;;;;;;15.68;8.05;;;;;;;;;;5071695;28;20104;-65
2022/04/30 11:11:22;;;;;;;16.65;7.75;;;;;;;;;;5071760;28;20100;-65
2022/04/30 11:14:16;;;;;;;17.40;8.50;;;15.50;84.80;;;;;;5071756;28;20028;-65
2022/04/30 11:16:46;;;;;;;18.05;9.00;;;18.70;77.10;;;;;;5068068;28;20064;-66
2022/04/30 11:19:15;;;;;;;15.52;8.52;;;19.60;73.30;;;;;;5071974;28;20059;-64
2022/04/30 11:21:51;;;;;;;16.48;8.27;;;19.70;71.60;;;;;;5071855;28;20025;-64
2022/04/30 11:24:28;;;;;;;16.52;8.57;;;20.60;70.70;;;;;;5071599;28;20078;-65
2022/04/30 11:27:05;;;;;;;17.88;8.35;;;;;;;;;;5070427;28;20485;-65
2022/04/30 11:29:35;;;;;;;16.02;8.05;;;20.50;69.20;;;;;;5089122;28;20020;-65
2022/04/30 11:32:02;;;;;;;15.65;8.30;;;19.70;69.40;;;;;;5090717;28;20032;-65
2022/04/30 11:34:27;;;;;;;15.18;8.27;;;18.70;70.10;;;;;;5090913;28;20169;-65
2022/04/30 11:36:58;;;;;;;15.43;8.65;;;18.00;71.40;;;;;;5070176;28;20419;-65
2022/04/30 11:39:25;;;;;;;17.08;8.77;;;17.60;72.00;;;;;;5071363;28;20409;-65
2022/04/30 11:41:53;;;;;;;15.18;7.90;;;18.60;71.40;;;;;;5070101;28;20119;-65
2022/04/30 11:44:27;;;;;;;16.57;8.93;;;19.70;68.90;;;;;;5071871;28;20055;-65
2022/04/30 11:46:54;;;;;;;15.63;8.00;;;19.60;69.40;;;;;;5071733;28;20485;-65
2022/04/30 11:49:21;;;;;;;15.18;8.00;;;;;;;;;;5071773;28;20021;-64
2022/04/30 11:51:49;;;;;;;15.70;8.80;;;19.30;67.20;;;;;;5071862;28;20017;-64
2022/04/30 11:54:17;;;;;;;15.98;9.00;;;21.20;64.30;;;;;;5071496;28;20086;-65
2022/04/30 11:56:43;;;;;;;14.70;8.35;;;22.70;63.90;;;;;;5071225;28;20166;-65
2022/04/30 11:59:10;;;;;;;18.00;9.20;;;24.30;61.50;;;;;;5069871;28;20037;-65
2022/04/30 12:01:38;;;;;;;16.52;9.32;;;25.20;59.00;;;;;;5071344;28;20503;-65
2022/04/30 12:04:11;;;;;;;15.40;9.10;;;25.60;55.10;;;;;;5071377;28;20104;-66
2022/04/30 12:06:38;;;;;;;17.75;11.43;;;24.20;54.20;;;;;;5070310;28;20032;-65
2022/04/30 12:09:18;;;;;;;16.23;9.70;;;22.40;55.80;;;;;;5074992;28;20029;-62
2022/04/30 12:11:45;;;;;;;17.27;8.93;;;;;;;;;;5075165;28;20021;-61
2022/04/30 12:14:11;;;;;;;16.63;9.35;;;;;;;;;;5073695;28;20432;-61
2022/04/30 12:16:40;;;;;;;17.30;9.30;;;20.60;57.80;;;;;;5074989;28;20028;-63
2022/04/30 12:24:45;;;;;;;15.82;9.15;;;20.60;59.00;;;;;;5075414;28;20185;-61
2022/04/30 12:27:19;;;;;;;15.85;8.65;;;;;;;;;;5092269;28;20030;-61
2022/04/30 12:29:44;;;;;;;17.13;8.98;;;19.80;60.00;;;;;;5094853;28;20111;-63
2022/04/30 12:32:10;;;;;;;15.45;9.30;;;18.10;62.60;;;;;;5094062;28;20052;-59
2022/04/30 12:34:40;;;;;;;15.90;8.75;;;17.40;64.00;;;;;;5095102;28;20027;-63
2022/04/30 12:37:07;;;;;;;15.38;8.85;;;;;;;;;;5095140;28;20020;-61
2022/04/30 12:39:33;;;;;;;15.57;8.68;;;17.00;65.20;;;;;;5094261;28;20028;-59
2022/04/30 12:41:59;;;;;;;16.98;8.40;;;16.50;66.60;;;;;;5080500;28;20511;-63
2022/04/30 12:44:25;;;;;;;17.05;8.48;;;16.80;65.90;;;;;;5073732;28;20036;-59
2022/04/30 12:46:51;;;;;;;15.00;8.05;;;17.50;66.80;;;;;;5074328;28;20103;-61
2022/04/30 12:49:19;;;;;;;15.45;8.73;;;19.50;64.30;;;;;;5073689;28;20104;-63
2022/04/30 12:51:48;;;;;;;17.10;9.30;;;21.70;60.30;;;;;;5074204;28;20028;-61
2022/04/30 12:54:14;;;;;;;15.25;9.35;;;23.20;56.60;;;;;;5071245;22;20048;-59
2022/04/30 12:56:41;;;;;;;15.57;9.38;;;23.60;56.00;;;;;;5052877;28;20412;-61
2022/04/30 12:59:07;;;;;;;14.98;8.85;;;24.50;53.80;;;;;;5053255;28;20427;-60
2022/04/30 13:01:34;;;;;;;17.67;9.23;;;23.10;54.20;;;;;;5051891;28;20032;-60
2022/04/30 13:04:03;;;;;;;16.15;8.85;;;22.10;55.20;;;;;;5052547;28;20024;-62
2022/04/30 13:06:30;;;;;;;15.73;8.93;;;21.40;56.60;;;;;;5052271;28;20025;-60
2022/04/30 13:14:27;;;;;;;16.73;9.10;;;23.00;56.60;;;;;;5053155;28;20282;-57
2022/04/30 13:16:53;;;;;;;16.63;9.10;;;23.00;56.20;;;;;;5052645;28;20029;-59
2022/04/30 13:19:19;;;;;;;15.50;9.13;;;23.20;54.10;;;;;;5051619;28;20115;-61
2022/04/30 13:21:47;;;;;;;15.70;9.38;;;22.40;54.70;;;;;;5052554;28;20032;-61
2022/04/30 13:24:16;;;;;;;15.45;8.93;;;23.60;54.90;;;;;;5052582;28;20029;-60
2022/04/30 13:26:43;;;;;;;16.52;9.55;;;24.80;53.00;;;;;;5051423;28;20132;-63
2022/04/30 13:29:11;;;;;;;16.13;9.02;;;24.80;52.70;;;;;;5052349;28;20025;-63
2022/04/30 13:31:41;;;;;;;19.48;10.40;;;26.80;52.50;;;;;;5052504;28;20028;-60
2022/04/30 13:34:08;;;;;;;16.08;9.63;;;27.50;50.20;;;;;;5052262;28;20017;-59
2022/04/30 13:36:34;;;;;;;16.90;10.40;;;26.50;48.80;;;;;;5051192;28;20437;-63
2022/04/30 13:39:01;;;;;;;14.35;9.00;;;25.40;50.40;;;;;;5052639;28;20028;-62